Time;durP1;ratioP1;P1;durP2;ratioP2;P2;SDS_P1;SDS_P2;PMS_P1;PMS_P2;Temp;Humidity;BMP_temperature;BMP_pressure;BME280_temperature;BME280_humidity;BME280_pressure;Samples;Min_cycle;Max_cycle;Signal;HPM_P1;HPM_P2
2023/09/23 00:02:21;;;;;;;4.35;2.50;;;;;;;20.12;49.22;100558.31;5012970;28;20045;-60
2023/09/23 00:04:46;;;;;;;4.82;3.28;;;;;;;20.08;49.38;100551.59;4995771;28;20600;-60
2023/09/23 00:07:12;;;;;;;3.92;2.42;;;;;;;20.06;49.62;100555.53;5013103;28;20128;-60
2023/09/23 00:09:37;;;;;;;8.13;2.70;;;;;;;20.01;49.12;100545.25;4995472;28;20026;-60
2023/09/23 00:12:04;;;;;;;6.40;2.40;;;;;;;19.96;49.67;100546.91;5013487;28;20038;-61
2023/09/23 00:14:29;;;;;;;7.30;2.92;;;;;;;19.90;49.40;100553.97;5013406;28;20093;-60
2023/09/23 00:16:55;;;;;;;5.20;2.13;;;;;;;19.85;49.44;100542.81;5013212;28;20038;-60
2023/09/23 00:19:20;;;;;;;3.17;1.90;;;;;;;19.80;49.09;100542.56;5013001;28;20509;-60
2023/09/23 00:21:47;;;;;;;2.70;2.22;;;;;;;19.76;49.26;100547.53;5013218;28;20033;-60
2023/09/23 00:24:13;;;;;;;3.28;2.10;;;;;;;19.73;49.21;100544.41;5013055;28;20088;-60
2023/09/23 00:26:39;;;;;;;3.08;1.60;;;;;;;19.71;49.03;100549.16;5011920;28;20042;-60
2023/09/23 00:29:04;;;;;;;4.72;1.60;;;;;;;19.69;49.13;100552.09;5012986;28;20038;-60
2023/09/23 00:31:29;;;;;;;4.55;1.38;;;;;;;19.68;49.60;100555.03;5012027;28;20114;-60
2023/09/23 00:33:55;;;;;;;1.75;1.15;;;;;;;19.68;49.08;100555.03;4995135;28;20050;-60
2023/09/23 00:36:22;;;;;;;1.55;0.95;;;;;;;19.67;49.70;100548.72;5011773;28;20121;-60
2023/09/23 00:38:47;;;;;;;1.77;1.10;;;;;;;19.67;49.52;100553.31;5013711;28;20041;-60
2023/09/23 00:41:13;;;;;;;3.05;1.08;;;;;;;19.64;49.61;100556.44;5011787;28;20024;-60
2023/09/23 00:43:38;;;;;;;6.18;1.23;;;;;;;19.65;48.95;100569.00;5011789;28;20129;-60
2023/09/23 00:46:05;;;;;;;4.75;0.90;;;;;;;19.65;49.27;100563.56;5011982;28;20054;-60
2023/09/23 00:48:38;;;;;;;2.38;0.82;;;;;;;19.61;49.62;100562.25;5011763;28;20042;-60
2023/09/23 00:51:03;;;;;;;;;;;;;;;19.60;49.78;100576.84;5011951;28;20050;-60
2023/09/23 00:53:29;;;;;;;1.80;1.02;;;;;;;19.60;49.60;100568.72;5011743;28;19975;-60
2023/09/23 00:55:55;;;;;;;1.80;0.90;;;;;;;19.63;49.18;100587.34;5011703;28;20036;-60
2023/09/23 00:58:22;;;;;;;3.00;0.88;;;;;;;19.60;49.44;100579.56;5011108;28;20030;-60
2023/09/23 01:00:49;;;;;;;1.45;0.68;;;;;;;19.61;49.67;100586.72;5012038;28;20030;-60
2023/09/23 01:03:15;;;;;;;6.40;1.10;;;;;;;19.59;49.98;100586.06;5012018;28;20447;-61
2023/09/23 01:05:41;;;;;;;1.98;0.50;;;;;;;19.59;49.44;100591.50;5013426;28;20121;-60
2023/09/23 01:08:20;;;;;;;1.08;0.75;;;;;;;19.57;49.27;100585.44;5012014;28;20117;-60
2023/09/23 01:10:48;;;;;;;3.05;0.88;;;;;;;19.56;49.76;100583.72;5011654;28;20081;-60
2023/09/23 01:13:13;;;;;;;3.08;0.68;;;;;;;19.57;49.76;100590.88;5014093;28;20105;-60
2023/09/23 01:15:40;;;;;;;2.53;0.80;;;;;;;19.56;49.64;100594.59;5015460;28;20050;-60
2023/09/23 01:18:09;;;;;;;3.47;0.82;;;;;;;19.56;49.99;100598.16;5016344;28;20048;-60
2023/09/23 01:20:35;;;;;;;1.70;0.80;;;;;;;19.55;49.39;100599.19;5000209;28;20072;-60
2023/09/23 01:23:00;;;;;;;2.92;0.50;;;;;;;19.55;50.00;100604.63;5016896;28;20539;-60
2023/09/23 01:25:26;;;;;;;2.10;0.55;;;;;;;19.52;49.81;100598.72;5015531;28;20049;-60
2023/09/23 01:27:51;;;;;;;1.42;0.60;;;;;;;19.53;50.16;100608.56;5015035;28;20048;-61
2023/09/23 01:30:21;;;;;;;2.13;0.77;;;;;;;19.52;49.83;100615.03;5016146;28;20041;-60
2023/09/23 01:32:51;;;;;;;3.33;0.70;;;;;;;19.51;49.69;100607.94;5015788;28;20033;-60
2023/09/23 01:35:17;;;;;;;3.72;0.80;;;;;;;19.46;49.34;100610.34;5015701;28;20026;-60
2023/09/23 01:37:44;;;;;;;9.05;0.98;;;;;;;19.42;50.06;100609.06;4998035;28;20037;-60
2023/09/23 01:40:16;;;;;;;1.23;0.65;;;;;;;19.43;49.81;100619.72;4997990;28;20034;-61
2023/09/23 01:42:41;;;;;;;3.50;0.98;;;;;;;19.44;49.75;100626.00;5014287;28;20034;-60
2023/09/23 01:45:10;;;;;;;1.55;0.47;;;;;;;19.45;49.73;100622.28;5014233;28;20034;-61
2023/09/23 01:47:35;;;;;;;1.50;0.52;;;;;;;19.46;50.01;100629.38;5015695;28;20026;-60
2023/09/23 01:50:01;;;;;;;1.63;1.13;;;;;;;19.41;49.99;100627.25;5014196;28;20401;-61
2023/09/23 01:52:29;;;;;;;8.10;0.90;;;;;;;19.43;49.90;100637.94;5013727;28;20472;-60
2023/09/23 01:54:54;;;;;;;3.95;0.82;;;;;;;19.42;49.65;100642.53;4998230;28;20386;-59
2023/09/23 01:57:20;;;;;;;2.33;0.70;;;;;;;19.43;50.29;100638.75;5015477;28;20565;-60
2023/09/23 01:59:46;;;;;;;2.88;0.50;;;;;;;19.44;49.60;100639.59;5014002;28;20029;-60
2023/09/23 02:02:11;;;;;;;3.33;0.65;;;;;;;19.45;49.65;100646.72;4997427;28;20042;-60
2023/09/23 02:04:39;;;;;;;1.02;0.73;;;;;;;19.45;49.57;100641.28;5014073;28;20046;-60
2023/09/23 02:07:06;;;;;;;6.82;0.95;;;;;;;19.43;49.44;100644.19;5015403;28;20042;-60
2023/09/23 02:09:33;;;;;;;2.92;0.70;;;;;;;19.44;49.82;100645.03;5014022;28;20083;-60
2023/09/23 02:11:59;;;;;;;3.58;0.57;;;;;;;19.43;49.70;100648.81;5014703;28;20409;-60
2023/09/23 02:14:24;;;;;;;3.55;0.63;;;;;;;19.41;49.76;100659.00;5013791;28;20038;-60
2023/09/23 02:16:51;;;;;;;3.40;0.68;;;;;;;19.40;49.84;100660.88;5013421;28;20104;-60
2023/09/23 02:19:18;;;;;;;2.47;0.73;;;;;;;19.39;49.98;100656.47;5014886;28;20034;-60
2023/09/23 02:21:43;;;;;;;1.70;0.73;;;;;;;19.38;50.28;100662.06;5013526;28;20520;-60
2023/09/23 02:24:08;;;;;;;5.45;0.85;;;;;;;19.39;49.96;100663.78;5014660;28;20121;-60
2023/09/23 02:26:34;;;;;;;3.40;0.60;;;;;;;19.40;49.99;100670.91;5014628;28;20053;-60
2023/09/23 02:28:59;;;;;;;4.57;0.88;;;;;;;19.41;49.32;100672.59;5013350;28;20030;-60
2023/09/23 02:31:25;;;;;;;0.70;0.50;;;;;;;19.43;49.83;100675.97;5012871;28;20062;-60
2023/09/23 02:33:50;;;;;;;0.68;0.55;;;;;;;19.42;50.11;100679.72;5013161;28;20037;-60
2023/09/23 02:36:15;;;;;;;3.90;0.60;;;;;;;19.38;49.77;100681.06;5014303;28;20030;-60
2023/09/23 02:38:45;;;;;;;2.25;0.40;;;;;;;19.38;49.58;100683.78;5014330;28;20093;-60
2023/09/23 02:41:10;;;;;;;2.08;0.85;;;;;;;19.37;49.75;100682.13;5013244;28;20040;-60
2023/09/23 02:43:37;;;;;;;2.72;0.52;;;;;;;19.34;50.42;100686.06;5013255;28;20117;-60
2023/09/23 02:46:03;;;;;;;3.70;0.55;;;;;;;19.34;49.59;100698.81;5013286;28;20029;-61
2023/09/23 02:48:29;;;;;;;2.78;1.25;;;;;;;19.32;50.24;100692.72;5014293;28;20454;-61
2023/09/23 02:50:58;;;;;;;1.50;0.45;;;;;;;19.29;49.55;100696.63;5014030;28;20383;-61
2023/09/23 02:53:24;;;;;;;3.47;0.47;;;;;;;19.30;49.25;100698.31;5007753;28;20033;-61
2023/09/23 02:56:08;;;;;;;2.22;0.63;;;;;;;19.27;50.04;100693.28;5012999;28;20045;-61
2023/09/23 02:58:33;;;;;;;2.72;0.52;;;;;;;19.27;49.73;100697.84;5012866;28;20116;-61
2023/09/23 03:01:03;;;;;;;0.68;0.40;;;;;;;19.27;49.83;100704.13;5014191;28;20030;-61
2023/09/23 03:03:30;;;;;;;4.45;0.75;;;;;;;19.27;50.04;100695.13;5012925;28;20502;-61
2023/09/23 03:05:55;;;;;;;2.70;0.65;;;;;;;19.27;50.11;100704.13;5014086;28;20041;-61
2023/09/23 03:08:22;;;;;;;1.83;0.75;;;;;;;19.27;50.01;100698.69;5012609;28;20438;-61
2023/09/23 03:10:49;;;;;;;1.45;0.70;;;;;;;19.31;50.10;100704.59;5014114;28;20049;-61
2023/09/23 03:13:15;;;;;;;3.90;0.75;;;;;;;19.31;50.39;100707.31;5012532;28;20045;-61
2023/09/23 03:15:50;;;;;;;1.92;0.80;;;;;;;19.32;49.97;100711.75;5014059;28;20112;-61
2023/09/23 03:18:17;;;;;;;2.50;0.30;;;;;;;19.31;49.86;100704.59;5012670;28;20123;-62
2023/09/23 03:20:43;;;;;;;1.33;0.38;;;;;;;19.31;50.40;100712.75;5013937;28;20040;-61
2023/09/23 03:23:12;;;;;;;2.22;1.00;;;;;;;19.31;50.06;100716.31;5013798;28;20509;-61
2023/09/23 03:25:47;;;;;;;7.68;0.50;;;;;;;19.31;49.99;100710.88;5012391;28;20041;-62
2023/09/23 03:28:15;;;;;;;1.50;0.70;;;;;;;19.30;50.26;100714.63;5012059;28;20063;-61
2023/09/23 03:30:43;;;;;;;5.43;0.57;;;;;;;19.30;49.79;100719.22;5012262;28;20038;-61
2023/09/23 03:33:08;;;;;;;3.08;0.75;;;;;;;19.30;50.02;100713.78;5012333;28;20037;-61
2023/09/23 03:35:36;;;;;;;0.60;0.60;;;;;;;19.31;50.40;100715.47;5012765;28;20038;-61
2023/09/23 03:38:02;;;;;;;2.28;0.90;;;;;;;19.29;50.29;100722.97;5013221;28;20402;-62
2023/09/23 03:40:29;;;;;;;5.18;0.88;;;;;;;19.29;49.92;100722.97;5012041;28;20026;-61
2023/09/23 03:42:55;;;;;;;0.90;0.60;;;;;;;19.32;50.34;100731.56;5011121;28;20026;-61
2023/09/23 03:45:20;;;;;;;1.95;0.75;;;;;;;19.30;49.96;100736.34;5013764;28;20493;-61
2023/09/23 03:47:46;;;;;;;3.83;0.50;;;;;;;19.31;50.37;100731.78;4995823;28;20029;-62
2023/09/23 03:50:15;;;;;;;1.88;0.65;;;;;;;19.31;50.52;100726.34;5013580;28;20084;-61
2023/09/23 03:52:42;;;;;;;4.55;1.45;;;;;;;19.32;50.24;100730.75;5012188;28;20042;-61
2023/09/23 03:55:11;;;;;;;5.57;1.13;;;;;;;19.32;50.15;100737.00;5012793;28;20037;-61
2023/09/23 03:57:37;;;;;;;2.67;0.40;;;;;;;19.32;50.06;100739.72;5012948;28;20543;-60
2023/09/23 04:00:12;;;;;;;0.52;0.52;;;;;;;19.32;50.49;100737.00;5012747;28;20061;-60
2023/09/23 04:02:37;;;;;;;0.45;0.40;;;;;;;19.35;50.44;100733.06;5013922;28;20474;-60
2023/09/23 04:05:03;;;;;;;2.38;0.80;;;;;;;19.32;50.30;100734.28;5013951;28;20095;-60
2023/09/23 04:07:28;;;;;;;6.70;0.60;;;;;;;19.31;50.35;100737.22;5013983;28;20026;-60
2023/09/23 04:09:53;;;;;;;6.78;1.17;;;;;;;19.31;49.86;100737.22;5013874;28;20389;-60
2023/09/23 04:12:19;;;;;;;3.70;0.80;;;;;;;19.28;50.21;100737.56;5013767;28;20033;-60
2023/09/23 04:14:44;;;;;;;3.75;0.60;;;;;;;19.28;49.84;100734.84;5012702;28;20037;-60
2023/09/23 04:17:10;;;;;;;2.85;1.13;;;;;;;19.24;50.11;100737.09;5014209;28;20101;-60
2023/09/23 04:19:35;;;;;;;0.85;0.63;;;;;;;19.25;50.27;100741.50;4980597;28;20040;-60
2023/09/23 04:22:01;;;;;;;1.35;0.65;;;;;;;19.21;49.92;100747.53;5012640;28;20117;-60
2023/09/23 04:24:26;;;;;;;4.32;1.25;;;;;;;19.19;50.21;100751.25;5013240;28;20033;-60
2023/09/23 04:26:53;;;;;;;2.20;0.52;;;;;;;19.17;49.93;100758.75;5015880;28;20049;-60
2023/09/23 04:29:20;;;;;;;1.17;0.60;;;;;;;19.16;50.45;100751.63;5018065;28;20041;-59
2023/09/23 04:31:46;;;;;;;3.10;0.70;;;;;;;19.12;50.14;100757.63;5018210;28;20116;-60
2023/09/23 04:34:13;;;;;;;1.70;0.60;;;;;;;19.11;50.17;100762.22;5019132;28;20042;-59
2023/09/23 04:36:39;;;;;;;4.47;1.15;;;;;;;19.09;50.04;100760.72;5000200;28;20029;-60
2023/09/23 04:39:06;;;;;;;3.00;0.70;;;;;;;19.12;50.26;100771.19;5013237;28;20403;-60
2023/09/23 04:41:32;;;;;;;2.53;0.65;;;;;;;19.13;50.45;100770.16;5012940;28;20407;-60
2023/09/23 04:43:57;;;;;;;5.60;0.77;;;;;;;19.12;50.23;100777.44;4995513;28;20116;-60
2023/09/23 04:46:23;;;;;;;4.43;0.70;;;;;;;19.12;50.10;100777.44;5012387;28;20048;-60
2023/09/23 04:48:49;;;;;;;3.95;1.13;;;;;;;19.12;50.34;100777.44;5013986;28;20041;-60
2023/09/23 04:51:14;;;;;;;2.95;1.10;;;;;;;19.11;50.56;100786.66;5016779;28;20053;-60
2023/09/23 04:53:41;;;;;;;1.83;0.88;;;;;;;19.10;50.09;100784.09;4998918;28;20512;-60
2023/09/23 04:56:08;;;;;;;2.47;0.70;;;;;;;19.06;49.68;100789.09;5015509;28;20108;-60
2023/09/23 04:58:33;;;;;;;4.72;0.80;;;;;;;19.03;50.35;100786.72;5016351;28;20478;-60
2023/09/23 05:00:59;;;;;;;6.38;0.70;;;;;;;19.02;50.20;100787.75;5014882;28;20045;-60
2023/09/23 05:03:25;;;;;;;1.95;0.82;;;;;;;19.06;50.52;100793.66;5016255;28;20037;-60
2023/09/23 05:05:51;;;;;;;3.22;1.25;;;;;;;19.06;50.60;100799.94;5014856;28;20030;-60
2023/09/23 05:08:16;;;;;;;3.90;1.15;;;;;;;19.07;50.30;100798.91;5015022;28;20033;-60
2023/09/23 05:10:41;;;;;;;1.55;0.88;;;;;;;19.09;50.31;100815.03;5016129;28;20117;-60
2023/09/23 05:13:09;;;;;;;1.40;0.60;;;;;;;19.09;50.27;100815.88;5016121;28;20453;-60
2023/09/23 05:15:34;;;;;;;2.67;0.65;;;;;;;19.08;50.05;100819.59;5014914;28;20124;-60
2023/09/23 05:18:00;;;;;;;2.03;0.60;;;;;;;19.08;50.08;100818.75;5016155;28;20461;-60
2023/09/23 05:20:25;;;;;;;2.65;0.65;;;;;;;19.04;50.27;100820.13;5014817;28;20038;-60
2023/09/23 05:22:51;;;;;;;1.08;0.63;;;;;;;19.03;50.53;100827.47;5016133;28;20026;-60
2023/09/23 05:25:17;;;;;;;1.02;0.60;;;;;;;19.04;50.34;100839.13;5016032;28;20041;-60
2023/09/23 05:27:43;;;;;;;5.70;0.65;;;;;;;19.05;50.41;100833.53;5014726;28;20029;-60
2023/09/23 05:30:10;;;;;;;3.30;0.65;;;;;;;19.04;50.48;100850.84;4998091;28;20088;-59
2023/09/23 05:32:38;;;;;;;6.75;1.15;;;;;;;19.02;50.19;100842.06;5014676;28;20072;-60
2023/09/23 05:35:10;;;;;;;3.80;0.82;;;;;;;19.04;50.16;100850.00;5014720;28;20505;-60
2023/09/23 05:37:40;;;;;;;3.42;0.50;;;;;;;19.05;49.41;100863.41;4998403;28;20038;-60
2023/09/23 05:40:27;;;;;;;1.05;0.55;;;;;;;19.06;50.03;100865.13;5015280;28;20041;-60
2023/09/23 05:42:57;;;;;;;3.10;0.75;;;;;;;19.07;50.74;100877.63;5014856;28;20034;-59
2023/09/23 05:45:24;;;;;;;5.38;0.60;;;;;;;19.05;50.44;100885.13;5014753;28;20033;-60
2023/09/23 05:47:50;;;;;;;1.23;0.70;;;;;;;19.06;49.75;100881.41;5014367;28;20034;-60
2023/09/23 05:50:17;;;;;;;4.47;0.70;;;;;;;19.07;50.02;100887.66;5014032;28;20121;-60
2023/09/23 05:52:45;;;;;;;0.85;0.75;;;;;;;19.06;50.61;100892.28;5013945;28;20045;-59
2023/09/23 05:55:11;;;;;;;3.17;0.73;;;;;;;19.08;50.06;100897.50;5014339;28;20112;-59
2023/09/23 05:57:38;;;;;;;4.63;0.75;;;;;;;19.07;50.33;100893.94;5013746;28;20058;-59
2023/09/23 06:00:08;;;;;;;1.50;0.50;;;;;;;19.09;50.10;100902.75;5013590;28;20045;-60
2023/09/23 06:02:34;;;;;;;2.45;0.85;;;;;;;19.12;50.37;100912.41;5014090;28;20040;-59
2023/09/23 06:05:01;;;;;;;5.15;0.90;;;;;;;19.16;50.27;100906.44;5015064;28;20141;-59
2023/09/23 06:07:27;;;;;;;5.50;0.52;;;;;;;19.28;50.02;100906.84;5013697;28;20037;-59
2023/09/23 06:09:53;;;;;;;1.42;0.70;;;;;;;19.42;50.19;100921.50;5013916;28;20041;-59
2023/09/23 06:12:18;;;;;;;5.63;0.90;;;;;;;19.55;49.73;100919.00;5013580;28;20030;-60
2023/09/23 06:14:43;;;;;;;1.83;0.82;;;;;;;19.68;49.91;100924.66;5013824;28;20038;-60
2023/09/23 06:17:09;;;;;;;1.67;0.50;;;;;;;19.82;49.27;100922.97;5015028;28;20494;-60
2023/09/23 06:19:34;;;;;;;3.38;1.10;;;;;;;19.95;48.78;100926.72;5014742;28;20113;-60
2023/09/23 06:22:00;;;;;;;2.47;0.60;;;;;;;20.12;49.38;100938.25;5014682;28;20033;-60
2023/09/23 06:24:25;;;;;;;1.85;0.70;;;;;;;20.22;49.19;100938.81;5013464;28;20038;-60
2023/09/23 06:26:50;;;;;;;0.93;0.70;;;;;;;20.36;49.24;100939.84;5014842;28;20117;-59
2023/09/23 06:29:16;;;;;;;2.05;0.73;;;;;;;20.46;48.79;100945.84;5014661;28;20136;-60
2023/09/23 06:31:42;;;;;;;3.67;0.68;;;;;;;20.57;48.95;100942.66;5014405;28;20034;-60
2023/09/23 06:34:07;;;;;;;3.17;0.73;;;;;;;20.71;48.35;100949.94;5014859;28;20038;-59
2023/09/23 06:36:33;;;;;;;3.20;0.80;;;;;;;20.84;49.18;100950.06;5013240;28;20060;-60
2023/09/23 06:38:59;;;;;;;3.70;0.82;;;;;;;20.99;48.09;100953.59;4996999;28;20034;-60
2023/09/23 06:41:24;;;;;;;2.83;0.63;;;;;;;21.11;48.69;100962.09;5014599;28;20029;-59
2023/09/23 06:43:51;;;;;;;2.05;0.50;;;;;;;21.21;47.88;100970.81;5013336;28;20405;-59
2023/09/23 06:46:17;;;;;;;4.60;0.90;;;;;;;21.31;48.11;100969.44;4997131;28;20038;-59
2023/09/23 06:48:42;;;;;;;4.18;0.75;;;;;;;21.44;47.47;100968.72;5013316;28;20040;-60
2023/09/23 06:51:08;;;;;;;3.15;0.80;;;;;;;21.58;47.28;100986.06;5012715;28;20066;-59
2023/09/23 06:53:34;;;;;;;2.67;0.68;;;;;;;21.69;48.17;100996.44;5012798;28;20037;-60
2023/09/23 06:55:59;;;;;;;4.13;1.40;;;;;;;21.81;47.06;101003.00;5014190;28;20033;-60
2023/09/23 06:58:25;;;;;;;2.90;0.80;;;;;;;21.94;46.99;101003.97;5012582;28;20160;-60
2023/09/23 07:00:50;;;;;;;3.45;0.98;;;;;;;22.10;47.69;101004.72;5012843;28;20141;-60
2023/09/23 07:03:15;;;;;;;1.55;0.68;;;;;;;22.19;47.21;101007.13;5014207;28;20034;-60
2023/09/23 07:05:41;;;;;;;3.17;0.60;;;;;;;22.34;47.20;100999.63;5013974;28;20038;-59
2023/09/23 07:08:07;;;;;;;3.50;0.90;;;;;;;22.49;46.72;101005.81;5013896;28;20113;-61
2023/09/23 07:10:36;;;;;;;3.58;1.02;;;;;;;22.61;46.71;101011.53;5012697;28;20084;-59
2023/09/23 07:13:05;;;;;;;1.83;0.77;;;;;;;22.76;46.70;101022.34;5013022;28;20405;-60
2023/09/23 07:15:37;;;;;;;7.75;0.90;;;;;;;22.88;46.28;101023.44;5012583;28;20209;-60
2023/09/23 07:18:04;;;;;;;1.77;0.70;;;;;;;23.04;46.72;101031.28;5009797;28;20050;-60
2023/09/23 07:20:29;;;;;;;7.47;1.05;;;;;;;23.16;45.61;101033.22;5012396;28;20017;-60
2023/09/23 07:22:54;;;;;;;2.15;1.00;;;;;;;23.28;46.01;101033.47;5012599;28;20072;-60
2023/09/23 07:25:20;;;;;;;1.70;0.75;;;;;;;23.43;45.06;101034.13;5012206;28;20109;-60
2023/09/23 07:27:45;;;;;;;3.30;1.00;;;;;;;23.59;45.43;101050.13;5013871;28;20018;-60
2023/09/23 07:30:11;;;;;;;4.13;1.80;;;;;;;23.77;44.60;101050.38;5013410;28;20017;-60
2023/09/23 07:32:36;;;;;;;4.20;0.90;;;;;;;23.94;44.77;101047.22;4995690;28;20462;-60
2023/09/23 07:35:03;;;;;;;1.52;0.65;;;;;;;24.08;45.00;101054.38;5012243;28;20030;-61
2023/09/23 07:37:29;;;;;;;2.83;0.65;;;;;;;24.24;44.91;101062.19;5013276;28;20055;-61
2023/09/23 07:39:54;;;;;;;3.92;1.05;;;;;;;24.23;44.39;101058.59;5013273;28;20401;-60
2023/09/23 07:42:20;;;;;;;2.10;0.63;;;;;;;24.34;44.13;101057.13;5012043;28;20099;-61
2023/09/23 07:44:45;;;;;;;8.35;0.90;;;;;;;24.41;43.95;101060.69;5011558;28;20489;-60
2023/09/23 07:47:10;;;;;;;1.95;1.02;;;;;;;24.55;44.12;101059.59;5011807;28;20022;-62
2023/09/23 07:49:36;;;;;;;2.55;1.00;;;;;;;24.67;43.68;101060.63;5012212;28;20401;-60
2023/09/23 07:52:01;;;;;;;2.85;1.70;;;;;;;24.78;43.92;101059.09;5013006;28;20049;-61
2023/09/23 07:54:26;;;;;;;3.30;1.30;;;;;;;24.97;43.75;101065.59;5013099;28;20021;-60
2023/09/23 07:56:52;;;;;;;1.38;1.02;;;;;;;25.17;42.92;101078.16;5013191;28;20057;-60
2023/09/23 07:59:18;;;;;;;1.92;0.80;;;;;;;25.26;42.96;101078.75;5013155;28;20109;-60
2023/09/23 08:01:43;;;;;;;3.25;0.88;;;;;;;25.46;42.80;101071.25;5012051;28;20025;-60
2023/09/23 08:04:08;;;;;;;2.40;1.00;;;;;;;25.67;42.39;101073.69;5011722;28;20478;-62
2023/09/23 08:06:34;;;;;;;2.85;1.08;;;;;;;25.64;42.95;101085.09;5013163;28;20397;-62
2023/09/23 08:08:59;;;;;;;2.03;0.80;;;;;;;25.90;42.16;101097.78;4995289;28;20018;-62
2023/09/23 08:11:26;;;;;;;2.78;1.17;;;;;;;26.06;42.46;101102.72;5012643;28;20030;-62
2023/09/23 08:13:52;;;;;;;4.85;1.25;;;;;;;26.28;41.85;101100.44;5011758;28;20149;-62
2023/09/23 08:16:17;;;;;;;3.33;1.35;;;;;;;26.17;42.06;101107.53;5011680;28;20034;-61
2023/09/23 08:18:42;;;;;;;2.08;0.80;;;;;;;26.43;41.87;101112.78;5012912;28;20034;-60
2023/09/23 08:21:08;;;;;;;4.15;1.63;;;;;;;26.56;41.78;101114.56;4995401;28;20556;-60
2023/09/23 08:23:33;;;;;;;3.95;1.02;;;;;;;26.21;41.79;101127.16;5014482;28;20572;-60
2023/09/23 08:25:58;;;;;;;4.82;1.02;;;;;;;26.17;42.00;101125.91;5016600;28;20419;-61
2023/09/23 08:28:24;;;;;;;4.13;1.13;;;;;;;26.12;41.65;101120.22;5015614;28;20026;-60
2023/09/23 08:30:51;;;;;;;1.58;0.85;;;;;;;26.33;42.04;101136.31;5016686;28;20040;-62
2023/09/23 08:33:16;;;;;;;3.72;0.95;;;;;;;26.23;41.78;101138.75;5015444;28;20045;-60
2023/09/23 08:35:42;;;;;;;5.13;1.13;;;;;;;26.34;41.89;101132.53;5015470;28;20041;-60
2023/09/23 08:38:08;;;;;;;3.28;0.70;;;;;;;26.19;41.21;101138.34;5016719;28;20037;-61
2023/09/23 08:40:36;;;;;;;1.48;0.93;;;;;;;26.35;40.92;101140.56;5016368;28;20026;-61
2023/09/23 08:43:04;;;;;;;5.05;1.02;;;;;;;26.71;40.96;101145.28;5015434;28;20038;-61
2023/09/23 08:45:30;;;;;;;2.63;0.65;;;;;;;26.85;40.64;101143.25;5015184;28;20042;-62
2023/09/23 08:47:56;;;;;;;1.45;0.95;;;;;;;26.61;41.61;101154.03;5015088;28;20030;-61
2023/09/23 08:50:22;;;;;;;2.15;1.23;;;;;;;26.57;41.31;101162.97;5015070;28;20427;-61
2023/09/23 08:52:47;;;;;;;5.95;2.83;;;;;;;26.26;41.40;101157.53;4998374;28;20038;-61
2023/09/23 08:55:14;;;;;;;5.78;1.17;;;;;;;26.42;40.45;101163.31;5014912;28;20037;-61
2023/09/23 08:57:40;;;;;;;4.38;1.15;;;;;;;26.60;40.71;101160.59;5014844;28;20405;-60
2023/09/23 09:00:10;;;;;;;3.90;1.23;;;;;;;26.88;40.32;101164.81;5014936;28;20489;-61
2023/09/23 09:02:35;;;;;;;5.80;1.00;;;;;;;27.05;40.04;101177.72;5015009;28;20036;-64
2023/09/23 09:05:01;;;;;;;5.03;1.25;;;;;;;26.98;40.95;101181.59;4998913;28;20085;-61
2023/09/23 09:07:36;;;;;;;2.08;0.90;;;;;;;26.96;40.94;101179.09;5015128;28;20536;-63
2023/09/23 09:10:02;;;;;;;4.82;1.00;;;;;;;26.94;40.74;101186.72;5015998;28;20034;-63
2023/09/23 09:12:28;;;;;;;6.00;1.20;;;;;;;26.71;40.46;101191.16;5015789;28;20044;-62
2023/09/23 09:14:55;;;;;;;5.72;1.15;;;;;;;26.42;40.71;101200.94;5014621;28;20038;-61
2023/09/23 09:17:20;;;;;;;4.50;1.30;;;;;;;26.35;41.12;101197.41;5014852;28;20029;-61
2023/09/23 09:19:46;;;;;;;4.72;1.23;;;;;;;26.18;40.94;101205.34;5016012;28;20501;-61
2023/09/23 09:22:13;;;;;;;0.90;0.90;;;;;;;26.11;41.37;101217.41;4998267;28;20084;-61
2023/09/23 09:24:40;;;;;;;1.15;0.65;;;;;;;25.98;41.03;101213.69;5014606;28;20117;-61
2023/09/23 09:27:12;;;;;;;2.22;1.58;;;;;;;26.01;40.89;101218.75;5014622;28;20103;-61
2023/09/23 09:29:40;;;;;;;3.80;0.88;;;;;;;26.07;40.96;101218.91;5015786;28;20053;-61
2023/09/23 09:32:06;;;;;;;3.90;0.80;;;;;;;26.89;39.82;101227.81;5014213;28;20038;-61
2023/09/23 09:34:37;;;;;;;3.95;0.75;;;;;;;28.77;37.18;101226.63;5015063;28;20041;-61
2023/09/23 09:37:03;;;;;;;5.85;0.77;;;;;;;29.02;37.29;101221.69;4994324;28;20034;-60
2023/09/23 09:39:29;;;;;;;5.55;1.23;;;;;;;29.22;36.80;101233.25;5006938;28;20509;-61
2023/09/23 09:41:58;;;;;;;7.78;0.90;;;;;;;29.41;37.16;101232.00;5014360;28;20501;-60
2023/09/23 09:44:27;;;;;;;6.00;0.93;;;;;;;29.28;37.32;101231.44;5014713;28;20041;-61
2023/09/23 09:46:54;;;;;;;4.85;0.95;;;;;;;29.54;36.86;101227.31;5014148;28;20064;-62
2023/09/23 09:49:21;;;;;;;7.72;1.25;;;;;;;29.41;37.55;101223.72;5015241;28;20153;-61
2023/09/23 09:51:48;;;;;;;1.75;0.82;;;;;;;28.93;37.86;101220.38;5015104;28;20066;-61
2023/09/23 09:54:14;;;;;;;2.08;0.73;;;;;;;28.44;38.21;101226.31;5014047;28;20375;-61
2023/09/23 09:56:41;;;;;;;1.38;0.40;;;;;;;27.97;39.29;101223.38;5014138;28;20037;-62
2023/09/23 09:59:06;;;;;;;3.67;0.90;;;;;;;27.66;39.42;101229.09;5014082;28;20517;-62
2023/09/23 10:01:33;;;;;;;5.93;1.00;;;;;;;27.55;38.54;101227.13;5015260;28;20034;-61
2023/09/23 10:03:59;;;;;;;1.48;0.60;;;;;;;27.93;38.37;101230.41;5014582;28;20030;-61
2023/09/23 10:06:26;;;;;;;3.08;0.73;;;;;;;27.69;38.77;101225.88;5013543;28;20037;-61
2023/09/23 10:08:53;;;;;;;4.95;0.75;;;;;;;28.45;38.37;101244.53;5014998;28;20034;-63
2023/09/23 10:11:29;;;;;;;2.95;0.88;;;;;;;29.41;36.88;101256.84;5014767;28;20042;-61
2023/09/23 10:13:55;;;;;;;5.07;0.70;;;;;;;29.98;35.86;101245.91;5013630;28;20034;-61
2023/09/23 10:16:27;;;;;;;3.83;0.75;;;;;;;29.53;36.20;101250.47;5014966;28;20084;-61
2023/09/23 10:18:59;;;;;;;2.00;0.82;;;;;;;29.27;36.95;101249.91;5013550;28;20109;-61
2023/09/23 10:21:27;;;;;;;2.40;1.10;;;;;;;28.91;38.02;101250.13;5014699;28;20405;-60
2023/09/23 10:23:55;;;;;;;1.60;0.88;;;;;;;28.58;38.03;101250.66;5013360;28;20038;-61
2023/09/23 10:26:22;;;;;;;5.43;1.25;;;;;;;28.26;37.89;101247.34;5013300;28;20030;-63
2023/09/23 10:29:03;;;;;;;3.58;0.98;;;;;;;27.88;38.47;101248.72;5013487;28;20045;-61
2023/09/23 10:31:33;;;;;;;2.15;0.80;;;;;;;27.47;38.15;101242.03;5012696;28;20457;-60
2023/09/23 10:34:06;;;;;;;2.83;0.80;;;;;;;27.69;38.32;101247.91;4997062;28;20040;-61
2023/09/23 10:36:32;;;;;;;3.50;1.23;;;;;;;27.52;38.52;101253.22;5015123;28;20062;-61
2023/09/23 10:38:59;;;;;;;3.80;0.70;;;;;;;27.85;37.22;101255.53;5013595;28;20026;-62
2023/09/23 10:41:35;;;;;;;3.60;0.77;;;;;;;27.61;37.80;101248.25;5013334;28;20413;-61
2023/09/23 10:44:03;;;;;;;4.15;1.02;;;;;;;27.52;37.79;101249.59;5012845;28;20057;-63
2023/09/23 10:46:32;;;;;;;3.75;0.88;;;;;;;27.88;37.19;101252.31;5012663;28;20030;-61
2023/09/23 10:48:58;;;;;;;6.25;1.95;;;;;;;28.29;37.10;101241.38;5014373;28;20034;-60
2023/09/23 10:51:24;;;;;;;2.65;0.68;;;;;;;29.14;36.56;101249.28;5012313;28;20056;-60
2023/09/23 10:53:52;;;;;;;5.10;1.23;;;;;;;29.56;36.73;101241.69;5012897;28;20109;-61
2023/09/23 10:56:21;;;;;;;1.17;0.60;;;;;;;30.24;35.24;101238.91;5012097;28;20026;-61
2023/09/23 10:58:49;;;;;;;3.30;1.02;;;;;;;30.82;34.78;101241.34;5013027;28;20052;-61
2023/09/23 11:01:14;;;;;;;4.85;0.95;;;;;;;31.30;34.51;101252.63;5012767;28;20042;-61
2023/09/23 11:03:42;;;;;;;2.47;0.98;;;;;;;31.98;33.88;101251.28;4992174;28;20100;-61
2023/09/23 11:06:08;;;;;;;2.70;1.00;;;;;;;32.40;33.75;101254.25;5012545;28;20070;-62
2023/09/23 11:08:34;;;;;;;1.95;0.52;;;;;;;31.70;34.19;101261.50;4995230;28;20471;-61
2023/09/23 11:10:59;;;;;;;4.60;0.82;;;;;;;31.53;34.59;101263.50;5013939;28;20127;-61
2023/09/23 11:13:25;;;;;;;0.90;0.75;;;;;;;31.51;34.91;101264.84;5012910;28;20401;-60
2023/09/23 11:15:51;;;;;;;2.05;0.68;;;;;;;31.27;34.73;101274.47;5011823;28;20058;-61
2023/09/23 11:18:17;;;;;;;1.17;0.93;;;;;;;31.85;33.51;101271.94;5014102;28;20053;-61
2023/09/23 11:20:44;;;;;;;4.30;1.13;;;;;;;31.67;33.75;101278.66;5012752;28;20034;-61
2023/09/23 11:23:10;;;;;;;2.60;0.65;;;;;;;31.76;33.44;101287.34;5013993;28;20501;-62